createdAt,value
2023-02-18T00:02:16.917Z,6.92
2023-02-18T00:04:45.357Z,6.95
2023-02-18T00:07:14.530Z,6.99
2023-02-18T00:09:47.964Z,6.99
2023-02-18T00:12:16.705Z,6.97
2023-02-18T00:14:49.060Z,6.95
2023-02-18T00:22:37.631Z,6.87
2023-02-18T00:26:26.472Z,6.91
2023-02-18T00:32:19.891Z,6.85
2023-02-18T00:34:51.303Z,6.83
2023-02-18T00:37:20.382Z,6.87
2023-02-18T00:39:48.923Z,6.95
2023-02-18T00:42:17.108Z,6.99
2023-02-18T00:44:45.475Z,7.00
2023-02-18T00:47:13.591Z,6.99
2023-02-18T00:49:41.758Z,6.98
2023-02-18T00:52:10.043Z,7.02
2023-02-18T00:54:38.217Z,7.09
2023-02-18T00:57:06.343Z,7.10
2023-02-18T00:59:34.782Z,7.09
2023-02-18T01:02:02.943Z,7.06
2023-02-18T01:04:31.077Z,7.01
2023-02-18T01:07:04.307Z,6.99
2023-02-18T01:09:32.445Z,7.00
2023-02-18T01:12:00.786Z,7.01
2023-02-18T01:14:29.185Z,6.99
2023-02-18T01:16:59.656Z,6.95
2023-02-18T01:19:27.940Z,6.89
2023-02-18T01:21:56.410Z,6.86
2023-02-18T01:24:29.433Z,6.91
2023-02-18T01:26:59.898Z,7.00
2023-02-18T01:29:28.355Z,7.04
2023-02-18T01:31:56.833Z,7.03
2023-02-18T01:34:25.330Z,7.02
2023-02-18T01:36:53.608Z,7.02
2023-02-18T01:39:21.886Z,7.08
2023-02-18T01:41:50.346Z,7.14
2023-02-18T01:44:24.740Z,7.16
2023-02-18T01:46:55.335Z,7.16
2023-02-18T01:49:28.431Z,7.14
2023-02-18T01:52:00.483Z,7.12
2023-02-18T01:54:39.970Z,7.14
2023-02-18T01:57:28.022Z,7.21
2023-02-18T01:59:58.522Z,7.24
2023-02-18T02:02:28.368Z,7.24
2023-02-18T02:04:57.196Z,7.24
2023-02-18T02:07:26.558Z,7.24
2023-02-18T02:09:58.575Z,7.23
2023-02-18T02:12:36.456Z,7.29
2023-02-18T02:15:24.780Z,7.37
2023-02-18T02:18:16.088Z,7.41
2023-02-18T02:21:03.480Z,7.43
2023-02-18T02:23:46.845Z,7.41
2023-02-18T02:26:27.707Z,7.37
2023-02-18T02:29:05.382Z,7.34
2023-02-18T02:31:40.770Z,7.37
2023-02-18T02:34:28.477Z,7.43
2023-02-18T02:37:17.654Z,7.45
2023-02-18T02:40:01.806Z,7.44
2023-02-18T02:42:48.009Z,7.41
2023-02-18T02:45:52.792Z,7.36
2023-02-18T02:48:39.353Z,7.32
2023-02-18T02:51:27.663Z,7.36
2023-02-18T02:54:10.651Z,7.39
2023-02-18T02:56:38.977Z,7.37
2023-02-18T02:59:11.796Z,7.32
2023-02-18T03:01:45.003Z,7.27
2023-02-18T03:04:27.613Z,7.23
2023-02-18T03:07:12.417Z,7.18
2023-02-18T03:09:59.511Z,7.22
2023-02-18T03:12:35.039Z,7.26
2023-02-18T03:15:20.748Z,7.26
2023-02-18T03:17:58.918Z,7.24
2023-02-18T03:20:34.354Z,7.22
2023-02-18T03:23:08.402Z,7.18
2023-02-18T03:25:38.080Z,7.17
2023-02-18T03:28:09.632Z,7.21
2023-02-18T03:30:46.526Z,7.28
2023-02-18T03:33:18.114Z,7.29
2023-02-18T03:35:46.423Z,7.28
2023-02-18T03:38:24.702Z,7.25
2023-02-18T03:40:53.407Z,7.22
2023-02-18T03:43:21.862Z,7.20
2023-02-18T03:45:50.133Z,7.25
2023-02-18T03:48:18.360Z,7.31
2023-02-18T03:50:47.332Z,7.35
2023-02-18T03:53:17.819Z,7.36
2023-02-18T03:55:49.470Z,7.36
2023-02-18T03:58:20.464Z,7.33
2023-02-18T04:00:48.581Z,7.32
2023-02-18T04:03:18.914Z,7.34
2023-02-18T04:05:48.251Z,7.39
2023-02-18T04:08:19.850Z,7.40
2023-02-18T04:10:48.682Z,7.39
2023-02-18T04:13:18.113Z,7.36
2023-02-18T04:15:51.064Z,7.31
2023-02-18T04:18:20.188Z,7.26
2023-02-18T04:20:52.011Z,7.27
2023-02-18T04:23:20.315Z,7.30
2023-02-18T04:25:50.998Z,7.29
2023-02-18T04:28:22.947Z,7.24
2023-02-18T04:30:51.257Z,7.20
2023-02-18T04:33:21.879Z,7.17
2023-02-18T04:35:50.279Z,7.16
2023-02-18T04:38:18.369Z,7.20
2023-02-18T04:40:48.782Z,7.25
2023-02-18T04:43:22.200Z,7.26
2023-02-18T04:45:50.246Z,7.26
2023-02-18T04:48:20.656Z,7.26
2023-02-18T04:50:48.820Z,7.26
2023-02-18T04:53:17.033Z,7.26
2023-02-18T04:55:50.783Z,7.31
2023-02-18T04:58:19.659Z,7.39
2023-02-18T05:00:47.864Z,7.44
2023-02-18T05:03:36.995Z,7.47
2023-02-18T05:06:05.707Z,7.46
2023-02-18T05:08:33.981Z,7.44
2023-02-18T05:11:08.411Z,7.42
2023-02-18T05:13:36.661Z,7.45
2023-02-18T05:16:05.131Z,7.51
2023-02-18T05:18:34.021Z,7.52
2023-02-18T05:21:02.164Z,7.52
2023-02-18T05:23:32.703Z,7.48
2023-02-18T05:26:00.911Z,7.45
2023-02-18T05:28:29.459Z,7.43
2023-02-18T05:31:00.236Z,7.48
2023-02-18T05:33:32.040Z,7.57
2023-02-18T05:36:00.476Z,7.62
2023-02-18T05:38:29.070Z,7.63
2023-02-18T05:40:57.597Z,7.63
2023-02-18T05:43:26.600Z,7.63
2023-02-18T05:45:55.256Z,7.69
2023-02-18T05:48:28.324Z,7.77
2023-02-18T05:50:57.087Z,7.81
2023-02-18T05:53:25.524Z,7.83
2023-02-18T05:55:54.902Z,7.84
2023-02-18T05:58:23.331Z,7.85
2023-02-18T06:00:53.266Z,7.86
2023-02-18T06:03:22.572Z,7.88
2023-02-18T06:05:51.552Z,7.97
2023-02-18T06:08:22.533Z,8.07
2023-02-18T06:10:50.744Z,8.15
2023-02-18T06:13:19.472Z,8.17
2023-02-18T06:15:50.956Z,8.19
2023-02-18T06:18:22.176Z,8.21
2023-02-18T06:20:50.236Z,8.23
2023-02-18T06:23:18.750Z,8.24
2023-02-18T06:25:49.179Z,8.30
2023-02-18T06:28:20.807Z,8.42
2023-02-18T06:30:49.459Z,8.49
2023-02-18T06:33:17.648Z,8.52
2023-02-18T06:35:57.197Z,8.54
2023-02-18T06:38:25.510Z,8.55
2023-02-18T06:40:53.999Z,8.55
2023-02-18T06:43:27.439Z,8.54
2023-02-18T06:45:55.671Z,8.52
2023-02-18T06:48:24.093Z,8.50
2023-02-18T06:50:59.020Z,8.49
2023-02-18T06:53:27.349Z,8.48
2023-02-18T06:55:55.492Z,8.50
2023-02-18T06:58:23.872Z,8.59
2023-02-18T07:00:52.345Z,8.70
2023-02-18T07:03:21.510Z,8.81
2023-02-18T07:05:49.639Z,8.89
2023-02-18T07:08:18.013Z,8.96
2023-02-18T07:10:50.960Z,9.01
2023-02-18T07:13:19.199Z,9.05
2023-02-18T07:15:47.686Z,9.08
2023-02-18T07:18:19.414Z,9.11
2023-02-18T07:20:56.133Z,9.13
2023-02-18T07:23:30.910Z,9.17
2023-02-18T07:26:10.282Z,9.20
2023-02-18T07:28:38.742Z,9.22
2023-02-18T07:31:07.009Z,9.20
2023-02-18T07:33:35.292Z,9.18
2023-02-18T07:36:04.246Z,9.19
2023-02-18T07:38:34.904Z,9.23
2023-02-18T07:41:03.909Z,9.25
2023-02-18T07:43:34.733Z,9.26
2023-02-18T07:46:06.973Z,9.27
2023-02-18T07:48:35.916Z,9.28
2023-02-18T07:51:10.888Z,9.30
2023-02-18T07:53:39.031Z,9.32
2023-02-18T07:56:07.983Z,9.33
2023-02-18T07:59:27.247Z,9.39
2023-02-18T08:01:55.725Z,9.37
2023-02-18T08:04:23.822Z,9.36
2023-02-18T08:06:52.128Z,9.35
2023-02-18T08:09:20.178Z,9.35
2023-02-18T08:11:48.334Z,9.36
2023-02-18T08:14:16.779Z,9.37
2023-02-18T08:16:47.670Z,9.38
2023-02-18T08:19:16.139Z,9.37
2023-02-18T08:21:44.523Z,9.35
2023-02-18T08:24:12.896Z,9.34
2023-02-18T08:26:58.012Z,9.32
2023-02-18T08:29:27.855Z,9.31
2023-02-18T08:31:58.457Z,9.31
2023-02-18T08:34:26.783Z,9.33
2023-02-18T08:36:55.866Z,9.37
2023-02-18T08:39:24.778Z,9.44
2023-02-18T08:48:18.374Z,9.66
2023-02-18T08:50:48.608Z,9.74
2023-02-18T08:53:18.278Z,9.84
2023-02-18T08:55:46.437Z,9.91
2023-02-18T08:58:15.759Z,9.99
2023-02-18T09:00:44.875Z,10.06
2023-02-18T09:03:14.405Z,10.10
2023-02-18T09:05:43.766Z,10.13
2023-02-18T09:08:15.023Z,10.15
2023-02-18T09:10:45.330Z,10.16
2023-02-18T09:13:16.062Z,10.20
2023-02-18T09:15:44.167Z,10.25
2023-02-18T09:18:19.593Z,10.30
2023-02-18T09:20:50.684Z,10.33
2023-02-18T09:23:21.567Z,10.36
2023-02-18T09:25:52.228Z,10.39
2023-02-18T09:28:20.670Z,10.42
2023-02-18T09:30:49.216Z,10.43
2023-02-18T09:33:17.879Z,10.43
2023-02-18T09:35:49.687Z,10.43
2023-02-18T09:38:18.941Z,10.43
2023-02-18T09:40:50.334Z,10.41
2023-02-18T09:43:30.837Z,10.38
2023-02-18T09:46:02.526Z,10.32
2023-02-18T09:48:33.066Z,10.33
2023-02-18T09:51:01.425Z,10.37
2023-02-18T09:53:30.046Z,10.40
2023-02-18T09:56:03.806Z,10.44
2023-02-18T09:58:32.459Z,10.46
2023-02-18T10:01:16.102Z,10.51
2023-02-18T10:03:44.731Z,10.57
2023-02-18T10:06:29.819Z,10.63
2023-02-18T10:09:03.638Z,10.72
2023-02-18T10:11:42.267Z,10.81
2023-02-18T10:14:12.950Z,10.95
2023-02-18T10:16:41.908Z,11.07
2023-02-18T10:19:26.045Z,11.20
2023-02-18T10:21:54.263Z,11.31
2023-02-18T10:24:42.849Z,11.39
2023-02-18T10:27:37.745Z,11.48
2023-02-18T10:30:36.581Z,11.54
2023-02-18T10:33:18.234Z,11.59
2023-02-18T10:35:54.151Z,11.62
2023-02-18T10:38:25.072Z,11.65
2023-02-18T10:41:29.708Z,11.70
2023-02-18T10:44:13.518Z,11.80
2023-02-18T10:46:59.721Z,11.87
2023-02-18T10:49:38.872Z,11.91
2023-02-18T10:52:06.981Z,11.96
2023-02-18T10:54:59.972Z,12.04
2023-02-18T10:57:29.651Z,12.06
2023-02-18T11:00:00.478Z,12.05
2023-02-18T11:02:32.691Z,12.03
2023-02-18T11:05:02.123Z,12.07
2023-02-18T11:07:33.171Z,12.11
2023-02-18T11:10:16.529Z,12.10
2023-02-18T11:12:46.371Z,12.12
2023-02-18T11:15:14.929Z,12.14
2023-02-18T11:17:47.097Z,12.15
2023-02-18T11:20:29.745Z,12.14
2023-02-18T11:23:10.344Z,12.13
2023-02-18T11:25:40.211Z,12.16
2023-02-18T11:28:27.818Z,12.18
2023-02-18T11:30:58.668Z,12.21
2023-02-18T11:33:37.569Z,12.24
2023-02-18T11:36:40.084Z,12.30
2023-02-18T11:39:22.675Z,12.28
2023-02-18T11:41:58.586Z,12.23
2023-02-18T11:44:32.355Z,12.21
2023-02-18T11:47:09.510Z,12.21
2023-02-18T11:49:37.880Z,12.23
2023-02-18T11:52:15.676Z,12.23
2023-02-18T11:54:43.825Z,12.26
2023-02-18T11:57:15.118Z,12.27
2023-02-18T11:59:43.275Z,12.28
2023-02-18T12:02:11.757Z,12.29
2023-02-18T12:04:50.635Z,12.30
2023-02-18T12:07:22.839Z,12.27
2023-02-18T12:09:56.612Z,12.25
2023-02-18T12:12:27.034Z,12.25
2023-02-18T12:14:59.702Z,12.27
2023-02-18T12:17:35.293Z,12.27
2023-02-18T12:20:28.894Z,12.30
2023-02-18T12:23:35.864Z,12.32
2023-02-18T12:26:23.998Z,12.35
2023-02-18T12:29:15.088Z,12.34
2023-02-18T12:32:11.553Z,12.31
2023-02-18T12:35:01.258Z,12.27
2023-02-18T12:37:57.514Z,12.24
2023-02-18T12:40:56.853Z,12.21
2023-02-18T12:43:44.677Z,12.21
2023-02-18T12:46:42.148Z,12.19
2023-02-18T12:49:17.742Z,12.21
2023-02-18T12:51:49.328Z,12.24
2023-02-18T12:54:33.161Z,12.26
2023-02-18T12:57:15.509Z,12.25
2023-02-18T13:00:12.107Z,12.22
2023-02-18T13:02:57.088Z,12.18
2023-02-18T13:05:33.140Z,12.16
2023-02-18T13:08:25.647Z,12.14
2023-02-18T13:11:15.343Z,12.12
2023-02-18T13:13:53.464Z,12.09
2023-02-18T13:16:23.862Z,12.05
2023-02-18T13:19:14.438Z,11.99
2023-02-18T13:21:45.400Z,11.94
2023-02-18T13:24:16.984Z,11.92
2023-02-18T13:26:45.033Z,11.90
2023-02-18T13:29:23.243Z,11.91
2023-02-18T13:32:08.077Z,11.91
2023-02-18T13:34:57.035Z,11.92
2023-02-18T13:37:33.563Z,11.95
2023-02-18T13:40:04.013Z,11.96
2023-02-18T13:42:37.200Z,11.95
2023-02-18T13:45:26.124Z,11.92
2023-02-18T13:47:55.001Z,11.88
2023-02-18T13:50:26.244Z,11.83
2023-02-18T13:53:14.502Z,11.79
2023-02-18T13:55:58.406Z,11.74
2023-02-18T13:58:30.898Z,11.70
2023-02-18T14:01:20.208Z,11.65
2023-02-18T14:03:53.623Z,11.60
2023-02-18T14:06:26.458Z,11.55
2023-02-18T14:09:12.394Z,11.50
2023-02-18T14:11:47.644Z,11.46
2023-02-18T14:14:28.364Z,11.41
2023-02-18T14:17:18.645Z,11.36
2023-02-18T14:20:16.634Z,11.31
2023-02-18T14:22:50.462Z,11.23
2023-02-18T14:25:33.553Z,11.17
2023-02-18T14:28:12.171Z,11.12
2023-02-18T14:30:41.550Z,11.06
2023-02-18T14:33:14.166Z,11.01
2023-02-18T14:35:56.924Z,10.96
2023-02-18T14:38:47.629Z,10.92
2023-02-18T14:41:37.356Z,10.89
2023-02-18T14:44:37.420Z,10.86
2023-02-18T14:47:26.488Z,10.84
2023-02-18T14:49:59.888Z,10.80
2023-02-18T14:52:30.367Z,10.78
2023-02-18T14:55:00.992Z,10.76
2023-02-18T14:58:12.017Z,10.73
2023-02-18T15:00:41.027Z,10.70
2023-02-18T15:03:14.284Z,10.65
2023-02-18T15:05:44.237Z,10.62
2023-02-18T15:08:19.902Z,10.59
2023-02-18T15:10:59.299Z,10.55
2023-02-18T15:13:35.063Z,10.51
2023-02-18T15:16:08.302Z,10.49
2023-02-18T15:18:39.367Z,10.46
2023-02-18T15:21:30.859Z,10.43
2023-02-18T15:24:28.065Z,10.40
2023-02-18T15:27:01.298Z,10.38
2023-02-18T15:29:32.578Z,10.35
2023-02-18T15:32:05.897Z,10.33
2023-02-18T15:34:39.622Z,10.30
2023-02-18T15:37:14.103Z,10.28
2023-02-18T15:39:46.562Z,10.25
2023-02-18T15:42:26.830Z,10.22
2023-02-18T15:45:13.891Z,10.19
2023-02-18T15:47:43.368Z,10.16
2023-02-18T15:50:20.171Z,10.11
2023-02-18T15:52:48.841Z,10.09
2023-02-18T15:55:25.638Z,10.07
2023-02-18T15:57:55.006Z,10.05
2023-02-18T16:00:32.329Z,10.03
2023-02-18T16:03:26.760Z,10.01
2023-02-18T16:06:13.226Z,9.99
2023-02-18T16:08:42.667Z,9.97
2023-02-18T16:11:12.624Z,9.95
2023-02-18T16:13:47.791Z,9.93
2023-02-18T16:16:29.404Z,9.92
2023-02-18T16:19:00.273Z,9.90
2023-02-18T16:21:34.690Z,9.89
2023-02-18T16:24:03.292Z,9.88
2023-02-18T16:26:51.897Z,9.86
2023-02-18T16:29:42.631Z,9.84
2023-02-18T16:32:11.368Z,9.81
2023-02-18T16:34:39.695Z,9.79
2023-02-18T16:37:28.523Z,9.77
2023-02-18T16:39:58.096Z,9.74
2023-02-18T16:42:26.543Z,9.71
2023-02-18T16:44:55.378Z,9.70
2023-02-18T16:47:26.495Z,9.69
2023-02-18T16:49:55.438Z,9.66
2023-02-18T16:52:23.791Z,9.66
2023-02-18T16:54:53.714Z,9.65
2023-02-18T16:57:21.875Z,9.63
2023-02-18T16:59:50.577Z,9.62
2023-02-18T17:02:23.405Z,9.60
2023-02-18T17:04:57.571Z,9.57
2023-02-18T17:07:25.913Z,9.54
2023-02-18T17:09:54.201Z,9.52
2023-02-18T17:12:22.510Z,9.48
2023-02-18T17:14:52.649Z,9.46
2023-02-18T17:17:22.922Z,9.44
2023-02-18T17:19:51.083Z,9.41
2023-02-18T17:22:19.959Z,9.38
2023-02-18T17:24:48.155Z,9.34
2023-02-18T17:27:16.523Z,9.31
2023-02-18T17:29:45.075Z,9.28
2023-02-18T17:32:13.239Z,9.24
2023-02-18T17:34:42.259Z,9.21
2023-02-18T17:37:13.033Z,9.18
2023-02-18T17:39:41.257Z,9.16
2023-02-18T17:42:11.525Z,9.14
2023-02-18T17:44:40.139Z,9.11
2023-02-18T17:47:08.795Z,9.09
2023-02-18T17:49:37.887Z,9.08
2023-02-18T17:52:06.669Z,9.05
2023-02-18T17:54:40.710Z,9.03
2023-02-18T17:57:08.835Z,8.99
2023-02-18T17:59:37.697Z,8.97
2023-02-18T18:02:14.811Z,8.96
2023-02-18T18:04:43.036Z,8.94
2023-02-18T18:07:11.167Z,8.92
2023-02-18T18:09:44.342Z,8.91
2023-02-18T18:12:14.125Z,8.89
2023-02-18T18:14:45.021Z,8.85
2023-02-18T18:17:13.293Z,8.83
2023-02-18T18:19:41.571Z,8.80
2023-02-18T18:22:10.725Z,8.78
2023-02-18T18:24:39.894Z,8.76
2023-02-18T18:27:09.606Z,8.75
2023-02-18T18:29:37.866Z,8.74
2023-02-18T18:32:11.302Z,8.73
2023-02-18T18:34:49.007Z,8.72
2023-02-18T18:37:17.671Z,8.70
2023-02-18T18:39:46.097Z,8.69
2023-02-18T18:42:14.782Z,8.67
2023-02-18T18:44:45.807Z,8.66
2023-02-18T18:47:17.639Z,8.65
2023-02-18T18:49:48.157Z,8.63
2023-02-18T18:52:23.955Z,8.62
2023-02-18T18:54:53.331Z,8.60
2023-02-18T18:57:24.966Z,8.59
2023-02-18T18:59:54.705Z,8.57
2023-02-18T19:02:27.942Z,8.55
2023-02-18T19:04:56.343Z,8.53
2023-02-18T19:07:28.121Z,8.53
2023-02-18T19:09:58.777Z,8.52
2023-02-18T19:12:27.040Z,8.51
2023-02-18T19:14:55.563Z,8.50
2023-02-18T19:17:28.292Z,8.56
2023-02-18T19:19:56.889Z,8.63
2023-02-18T19:22:25.852Z,8.67
2023-02-18T19:24:53.975Z,8.68
2023-02-18T19:27:22.714Z,8.69
2023-02-18T19:29:54.337Z,8.70
2023-02-18T19:32:22.782Z,8.67
2023-02-18T19:34:53.775Z,8.63
2023-02-18T19:37:24.852Z,8.59
2023-02-18T19:39:55.597Z,8.55
2023-02-18T19:42:24.227Z,8.50
2023-02-18T19:44:56.683Z,8.44
2023-02-18T19:47:25.764Z,8.46
2023-02-18T19:49:57.389Z,8.52
2023-02-18T19:52:26.138Z,8.51
2023-02-18T19:54:55.609Z,8.47
2023-02-18T19:57:23.804Z,8.46
2023-02-18T19:59:51.990Z,8.42
2023-02-18T20:02:21.941Z,8.38
2023-02-18T20:04:50.249Z,8.36
2023-02-18T20:07:20.465Z,8.32
2023-02-18T20:09:54.830Z,8.30
2023-02-18T20:12:29.575Z,8.36
2023-02-18T20:16:58.933Z,8.51
2023-02-18T20:19:28.715Z,8.48
2023-02-18T20:29:41.169Z,8.44
2023-02-18T20:32:09.786Z,8.43
2023-02-18T20:34:42.081Z,8.50
2023-02-18T20:37:10.815Z,8.51
2023-02-18T20:39:38.962Z,8.49
2023-02-18T20:42:16.432Z,8.46
2023-02-18T20:44:49.488Z,8.44
2023-02-18T20:47:19.618Z,8.40
2023-02-18T20:49:51.861Z,8.41
2023-02-18T20:52:21.870Z,8.37
2023-02-18T20:54:52.357Z,8.27
2023-02-18T20:57:21.272Z,8.20
2023-02-18T20:59:51.537Z,8.16
2023-02-18T21:02:20.797Z,8.08
2023-02-18T21:04:49.067Z,7.94
2023-02-18T21:07:17.340Z,7.87
2023-02-18T21:09:46.353Z,7.89
2023-02-18T21:12:14.873Z,7.92
2023-02-18T21:14:44.788Z,7.93
2023-02-18T21:17:14.274Z,7.89
2023-02-18T21:19:42.646Z,7.89
2023-02-18T21:22:11.829Z,7.94
2023-02-18T21:24:39.916Z,8.02
2023-02-18T21:27:10.978Z,8.06
2023-02-18T21:29:39.084Z,8.08
2023-02-18T21:32:09.857Z,8.06
2023-02-18T21:34:39.939Z,8.04
2023-02-18T21:37:08.149Z,8.01
2023-02-18T21:39:36.366Z,8.02
2023-02-18T21:42:06.134Z,8.05
2023-02-18T21:44:42.258Z,8.04
2023-02-18T21:47:12.232Z,8.04
2023-02-18T21:49:40.959Z,8.02
2023-02-18T21:52:09.596Z,7.99
2023-02-18T21:54:44.721Z,8.02
2023-02-18T21:57:20.017Z,8.11
2023-02-18T21:59:49.046Z,8.11
2023-02-18T22:02:22.854Z,8.06
2023-02-18T22:04:52.936Z,8.01
2023-02-18T22:07:24.915Z,7.95
2023-02-18T22:09:54.103Z,7.98
2023-02-18T22:12:25.113Z,8.01
2023-02-18T22:14:55.798Z,8.01
2023-02-18T22:17:23.886Z,8.00
2023-02-18T22:19:54.124Z,7.98
2023-02-18T22:22:26.774Z,7.97
2023-02-18T22:24:55.154Z,8.03
2023-02-18T22:27:24.390Z,8.10
2023-02-18T22:29:54.395Z,8.11
2023-02-18T22:32:29.137Z,8.06
2023-02-18T22:34:57.443Z,7.98
2023-02-18T22:37:26.295Z,7.89
2023-02-18T22:39:54.956Z,7.87
2023-02-18T22:42:23.910Z,7.88
2023-02-18T22:44:52.470Z,7.83
2023-02-18T22:47:20.458Z,7.77
2023-02-18T22:49:49.088Z,7.70
2023-02-18T22:52:19.375Z,7.68
2023-02-18T22:54:47.919Z,7.67
2023-02-18T22:57:16.053Z,7.63
2023-02-18T22:59:44.094Z,7.57
2023-02-18T23:02:12.713Z,7.52
2023-02-18T23:04:41.979Z,7.51
2023-02-18T23:07:10.152Z,7.53
2023-02-18T23:09:38.478Z,7.54
2023-02-18T23:12:06.914Z,7.51
2023-02-18T23:14:36.637Z,7.49
2023-02-18T23:17:13.483Z,7.47
2023-02-18T23:19:49.888Z,7.52
2023-02-18T23:22:30.478Z,7.62
2023-02-18T23:24:58.997Z,7.63
2023-02-18T23:27:30.612Z,7.65
2023-02-18T23:29:59.000Z,7.69
2023-02-18T23:32:29.011Z,7.73
2023-02-18T23:34:57.912Z,7.81
2023-02-18T23:37:44.810Z,7.88
2023-02-18T23:40:14.780Z,7.89
2023-02-18T23:42:43.030Z,7.89
2023-02-18T23:45:14.144Z,7.88
2023-02-18T23:47:45.217Z,7.89
2023-02-18T23:50:16.447Z,7.95
2023-02-18T23:52:44.462Z,8.04
2023-02-18T23:55:13.067Z,8.08
2023-02-18T23:57:41.413Z,8.07
